Wichita, KS (67235)

11:53 PM CST on February 11, 2016 (GMT -0600)
Highland Springs | | Change Station
CLOSE
Current Station
Personal Weather Station
Location: Wichita, KS
Elevation: 1370 ft
Nearby Weather Stations

Elev 1370 ft 37.69 °N, 97.51 °W | Updated 12 seconds ago

Clear
Clear
32.5 °F
Feels Like 32 °F
N
0.0
Wind Variable Wind from WNW
Gusts 1.0 mph

Today
High -- | Low -- °F
--% Chance of Precip.
Yesterday
High -- | Low -- °F
Precip. -- in
Pressure 30.22 in
Visibility 10.0 miles
Clouds Few 20000 ft
Windchill 32 °F
Dew Point 28 °F
Humidity 84%
Rainfall 0.00 in
Snow Depth Not available.
7:24 AM 6:04 PM
Waxing Crescent, 17% visible
METAR KICT 120453Z 00000KT 10SM FEW200 02/M03 A3018 RMK AO2 SLP231 T00171033
Pressure 30.22 in
Visibility 10.0 miles
Clouds Few 20000 ft
Windchill 32 °F
Dew Point 28 °F
Humidity 84%
Rainfall 0.00 in
Snow Depth Not available.
7:24 AM 6:04 PM
Waxing Crescent, 17% visible
METAR KICT 120453Z 00000KT 10SM FEW200 02/M03 A3018 RMK AO2 SLP231 T00171033

10-Day Weather Forecast

Almanac

Astronomy

Feb. 11, 2016 Rise Set
Actual Time
Civil Twilight
Nautical Twilight
Astronomical Twilight
Moon
Length of Visible Light
Length of Day
Tomorrow will be .
, % of the Moon is Illuminated

Today's Extremes

State Highs State Lows

Community

WunderPhotos

Upload Photos

1,892,269 photos uploaded!

WunderBlog® & News

Nearby

Air Quality

  Air Quality AQ Index Pollutant
Not available.

Snow Depth

Station Depth Elevation

Earthquake Activity

City Distance Mag. Time & Date
Minimum magnitude displayed is 2.5.

Coastal Water Temperatures

Place Temperature

Stations

Nearby Weather Stations

Station Location Temp. Windchill Dew Point Humidity Wind Precip. Elev Updated Type
                   

Watches & Warnings

There are currently no watches in effect.